Time;durP1;ratioP1;P1;durP2;ratioP2;P2;SDS_P1;SDS_P2;PMS_P1;PMS_P2;Temp;Humidity;BMP_temperature;BMP_pressure;BME280_temperature;BME280_humidity;BME280_pressure;Samples;Min_cycle;Max_cycle;Signal;HPM_P1;HPM_P2
2023/12/03 00:02:14;;;;;;;28.48;14.32;;;;;;;;;;4934834;29;20036;-59
2023/12/03 00:04:42;;;;;;;27.02;12.48;;;;;;;;;;4938937;29;20056;-60
2023/12/03 00:07:08;;;;;;;27.02;11.88;;;;;;;;;;4939759;29;20042;-59
2023/12/03 00:09:36;;;;;;;27.90;13.05;;;;;;;;;;4937953;29;20047;-59
2023/12/03 00:12:05;;;;;;;24.33;11.50;;;;;;;;;;4938816;29;20050;-59
2023/12/03 00:14:31;;;;;;;23.05;11.15;;;;;;;;;;4938073;29;20051;-60
2023/12/03 00:16:57;;;;;;;27.27;13.07;;;;;;;;;;4935295;29;20035;-61
2023/12/03 00:19:26;;;;;;;31.92;14.60;;;;;;;;;;4941727;29;20055;-60
2023/12/03 00:21:53;;;;;;;28.77;13.63;;;;;;;;;;4934645;29;20040;-60
2023/12/03 00:24:20;;;;;;;27.73;12.05;;;;;;;;;;4928406;29;20074;-61
2023/12/03 00:26:47;;;;;;;24.98;12.15;;;;;;;;;;4924452;29;20040;-61
2023/12/03 00:29:14;;;;;;;21.63;10.98;;;;;;;;;;4931008;29;20047;-60
2023/12/03 00:31:41;;;;;;;21.33;10.48;;;;;;;;;;4934438;29;20110;-59
2023/12/03 00:34:07;;;;;;;21.08;10.02;;;;;;;;;;4931910;29;20047;-61
2023/12/03 00:36:33;;;;;;;21.35;10.93;;;;;;;;;;4935827;29;20044;-61
2023/12/03 00:38:59;;;;;;;25.05;11.50;;;;;;;;;;4931558;29;20028;-59
2023/12/03 00:41:25;;;;;;;21.67;10.52;;;;;;;;;;4935295;29;20051;-59
2023/12/03 00:43:53;;;;;;;26.05;11.98;;;;;;;;;;4937650;29;20048;-61
2023/12/03 00:46:20;;;;;;;24.92;11.88;;;;;;;;;;4936866;29;20040;-60
2023/12/03 00:48:46;;;;;;;28.05;12.63;;;;;;;;;;4924744;29;20059;-60
2023/12/03 00:51:13;;;;;;;26.67;12.35;;;;;;;;;;4928788;29;20415;-61
2023/12/03 00:53:41;;;;;;;27.50;12.65;;;;;;;;;;4928545;29;20420;-60
2023/12/03 00:56:09;;;;;;;21.73;11.40;;;;;;;;;;4922720;29;20040;-60
2023/12/03 00:58:35;;;;;;;23.17;11.88;;;;;;;;;;4935695;29;20039;-60
2023/12/03 01:01:01;;;;;;;25.10;11.05;;;;;;;;;;4933987;29;20056;-62
2023/12/03 01:03:28;;;;;;;22.98;11.52;;;;;;;;;;4936205;29;20380;-59
2023/12/03 01:05:54;;;;;;;23.55;11.35;;;;;;;;;;4934032;29;20041;-60
2023/12/03 01:08:21;;;;;;;22.23;10.70;;;;;;;;;;4937229;29;20410;-60
2023/12/03 01:10:47;;;;;;;23.65;11.35;;;;;;;;;;4933366;29;20056;-60
2023/12/03 01:13:13;;;;;;;22.83;11.50;;;;;;;;;;4932604;29;20047;-61
2023/12/03 01:15:39;;;;;;;22.73;11.10;;;;;;;;;;4940758;29;20050;-60
2023/12/03 01:18:05;;;;;;;24.10;11.35;;;;;;;;;;4933173;29;20035;-60
2023/12/03 01:20:31;;;;;;;20.17;10.43;;;;;;;;;;4938499;29;20051;-60
2023/12/03 01:22:58;;;;;;;20.73;10.07;;;;;;;;;;4934218;28;20058;-60
2023/12/03 01:25:24;;;;;;;18.70;10.00;;;;;;;;;;4932498;29;20055;-61
2023/12/03 01:27:50;;;;;;;21.48;9.80;;;;;;;;;;4933347;29;20039;-60
2023/12/03 01:30:16;;;;;;;21.30;10.13;;;;;;;;;;4934811;29;20055;-60
2023/12/03 01:32:42;;;;;;;21.60;10.23;;;;;;;;;;4933567;29;20406;-60
2023/12/03 01:35:08;;;;;;;23.55;10.63;;;;;;;;;;4929410;29;20396;-59
2023/12/03 01:37:35;;;;;;;21.03;10.93;;;;;;;;;;4895012;29;1106350;-59
2023/12/03 01:40:01;;;;;;;23.85;10.77;;;;;;;;;;4937190;29;20419;-58
2023/12/03 01:42:27;;;;;;;20.15;9.27;;;;;;;;;;4938884;28;20055;-60
2023/12/03 01:44:53;;;;;;;19.25;8.80;;;;;;;;;;4936550;29;20039;-58
2023/12/03 01:47:20;;;;;;;17.63;9.15;;;;;;;;;;4935841;29;20675;-59
2023/12/03 01:49:48;;;;;;;19.08;9.45;;;;;;;;;;4927908;29;20048;-59
2023/12/03 01:52:14;;;;;;;19.65;9.85;;;;;;;;;;4936617;29;20031;-59
2023/12/03 01:54:43;;;;;;;19.42;9.13;;;;;;;;;;4928175;29;20056;-58
2023/12/03 01:57:10;;;;;;;18.20;9.50;;;;;;;;;;4928515;29;20039;-59
2023/12/03 01:59:37;;;;;;;19.48;9.25;;;;;;;;;;4933557;29;20040;-59
2023/12/03 02:02:04;;;;;;;15.18;8.48;;;;;;;;;;4936749;29;20031;-59
2023/12/03 02:04:30;;;;;;;18.83;9.77;;;;;;;;;;4940477;29;20052;-59
2023/12/03 02:06:56;;;;;;;20.75;9.93;;;;;;;;;;4933012;29;20408;-61
2023/12/03 02:09:23;;;;;;;21.88;10.45;;;;;;;;;;4937153;29;20515;-60
2023/12/03 02:11:50;;;;;;;19.83;10.48;;;;;;;;;;4933401;29;20530;-60
2023/12/03 02:14:16;;;;;;;20.08;9.63;;;;;;;;;;4934033;29;20536;-62
2023/12/03 02:16:47;;;;;;;20.10;9.70;;;;;;;;;;4931538;29;20070;-62
2023/12/03 02:19:16;;;;;;;19.88;9.35;;;;;;;;;;4933396;29;20047;-63
2023/12/03 02:21:43;;;;;;;21.80;9.52;;;;;;;;;;4938816;28;20043;-59
2023/12/03 02:24:09;;;;;;;18.98;9.30;;;;;;;;;;4931618;29;20046;-58
2023/12/03 02:26:35;;;;;;;18.75;9.20;;;;;;;;;;4930474;29;20055;-59
2023/12/03 02:29:01;;;;;;;22.27;10.02;;;;;;;;;;4932572;29;20427;-60
2023/12/03 02:31:30;;;;;;;17.40;8.93;;;;;;;;;;4933591;29;20439;-59
2023/12/03 02:34:10;;;;;;;19.58;9.60;;;;;;;;;;4928097;29;20047;-60
2023/12/03 02:36:36;;;;;;;20.25;8.95;;;;;;;;;;4934861;29;20043;-60
2023/12/03 02:39:02;;;;;;;18.80;9.05;;;;;;;;;;4935824;29;20128;-61
2023/12/03 02:41:29;;;;;;;19.08;8.73;;;;;;;;;;4936845;28;20100;-59
2023/12/03 02:43:55;;;;;;;18.02;8.75;;;;;;;;;;4936499;29;20051;-60
2023/12/03 02:46:21;;;;;;;17.85;9.43;;;;;;;;;;4936123;29;20047;-60
2023/12/03 02:48:48;;;;;;;15.57;8.70;;;;;;;;;;4932994;29;20035;-61
2023/12/03 02:51:14;;;;;;;18.52;8.55;;;;;;;;;;4939185;28;20047;-62
2023/12/03 02:53:41;;;;;;;19.45;8.73;;;;;;;;;;4932378;29;20040;-59
2023/12/03 02:56:08;;;;;;;18.48;9.15;;;;;;;;;;4937701;29;20042;-59
2023/12/03 02:58:35;;;;;;;16.63;8.43;;;;;;;;;;4933391;29;20082;-59
2023/12/03 03:01:01;;;;;;;22.55;10.43;;;;;;;;;;4934485;29;20039;-59
2023/12/03 03:03:27;;;;;;;17.40;9.13;;;;;;;;;;4933974;28;20051;-60
2023/12/03 03:05:54;;;;;;;20.13;9.73;;;;;;;;;;4931019;29;20036;-61
2023/12/03 03:08:20;;;;;;;18.08;8.30;;;;;;;;;;4940457;29;20050;-60
2023/12/03 03:10:46;;;;;;;19.95;9.25;;;;;;;;;;4938216;29;20504;-61
2023/12/03 03:13:12;;;;;;;23.70;9.80;;;;;;;;;;4939832;29;20031;-61
2023/12/03 03:15:38;;;;;;;22.30;10.77;;;;;;;;;;4927564;28;20056;-61
2023/12/03 03:18:05;;;;;;;20.35;10.10;;;;;;;;;;4932913;29;20051;-60
2023/12/03 03:20:31;;;;;;;20.95;9.68;;;;;;;;;;4934198;29;20392;-60
2023/12/03 03:22:57;;;;;;;18.75;9.13;;;;;;;;;;4932400;29;20411;-59
2023/12/03 03:25:23;;;;;;;17.48;9.82;;;;;;;;;;4930834;29;20748;-60
2023/12/03 03:27:49;;;;;;;20.75;9.88;;;;;;;;;;4927213;29;20039;-60
2023/12/03 03:30:15;;;;;;;19.20;9.75;;;;;;;;;;4931743;29;20059;-60
2023/12/03 03:32:41;;;;;;;19.63;9.68;;;;;;;;;;4929506;29;20055;-61
2023/12/03 03:35:08;;;;;;;20.60;10.02;;;;;;;;;;4930862;29;20416;-60
2023/12/03 03:37:34;;;;;;;19.48;9.98;;;;;;;;;;4931856;29;20381;-61
2023/12/03 03:40:00;;;;;;;21.38;9.35;;;;;;;;;;4933877;29;20042;-61
2023/12/03 03:42:26;;;;;;;21.08;9.95;;;;;;;;;;4938708;29;20058;-60
2023/12/03 03:44:52;;;;;;;19.45;10.23;;;;;;;;;;4936534;29;20116;-60
2023/12/03 03:47:18;;;;;;;21.83;9.95;;;;;;;;;;4929865;29;20065;-59
2023/12/03 03:49:44;;;;;;;20.98;9.40;;;;;;;;;;4930100;29;20086;-60
2023/12/03 03:52:10;;;;;;;19.58;9.73;;;;;;;;;;4936423;28;20059;-61
2023/12/03 03:54:43;;;;;;;20.30;9.98;;;;;;;;;;4931407;29;20031;-60
2023/12/03 03:57:09;;;;;;;18.52;9.40;;;;;;;;;;4939975;29;20051;-59
2023/12/03 03:59:35;;;;;;;20.38;9.60;;;;;;;;;;4936196;29;20043;-59
2023/12/03 04:02:01;;;;;;;19.90;9.48;;;;;;;;;;4941822;28;20435;-59
2023/12/03 04:04:27;;;;;;;19.58;9.45;;;;;;;;;;4942441;29;20056;-59
2023/12/03 04:06:53;;;;;;;20.08;8.68;;;;;;;;;;4935558;29;20248;-59
2023/12/03 04:09:20;;;;;;;20.75;10.02;;;;;;;;;;4939195;29;20042;-59
2023/12/03 04:11:46;;;;;;;19.00;8.55;;;;;;;;;;4938439;29;20047;-61
2023/12/03 04:14:16;;;;;;;17.42;8.52;;;;;;;;;;4939890;29;20054;-59
2023/12/03 04:16:44;;;;;;;18.42;9.32;;;;;;;;;;4936059;29;20051;-60
2023/12/03 04:19:13;;;;;;;15.65;8.02;;;;;;;;;;4928542;29;20048;-60
2023/12/03 04:21:39;;;;;;;16.70;8.10;;;;;;;;;;4935736;29;20060;-61
2023/12/03 04:24:06;;;;;;;20.02;10.00;;;;;;;;;;4931985;29;20291;-60
2023/12/03 04:26:32;;;;;;;19.50;9.85;;;;;;;;;;4935103;29;20047;-61
2023/12/03 04:28:58;;;;;;;20.10;9.50;;;;;;;;;;4936127;29;20042;-61
2023/12/03 04:31:25;;;;;;;22.23;10.02;;;;;;;;;;4936828;29;20039;-59
2023/12/03 04:33:53;;;;;;;19.65;8.88;;;;;;;;;;4936299;29;20179;-59
2023/12/03 04:36:23;;;;;;;18.17;7.95;;;;;;;;;;4932330;29;20059;-60
2023/12/03 04:38:53;;;;;;;;;;;;;;;;;;4935402;29;20507;-61
2023/12/03 04:41:20;;;;;;;17.98;8.02;;;;;;;;;;4941094;29;19937;-60
2023/12/03 04:43:46;;;;;;;17.02;8.73;;;;;;;;;;4932125;29;20036;-60
2023/12/03 04:46:12;;;;;;;14.80;7.57;;;;;;;;;;4931735;29;20066;-60
2023/12/03 04:48:40;;;;;;;17.45;8.27;;;;;;;;;;4930365;29;21224;-61
2023/12/03 04:51:07;;;;;;;18.52;7.93;;;;;;;;;;4937812;29;20051;-61
2023/12/03 04:53:33;;;;;;;15.70;8.15;;;;;;;;;;4929966;29;20059;-61
2023/12/03 04:55:59;;;;;;;16.85;7.40;;;;;;;;;;4933109;29;20040;-61
2023/12/03 04:58:25;;;;;;;15.30;7.35;;;;;;;;;;4931143;29;20040;-62
2023/12/03 05:00:53;;;;;;;15.82;7.78;;;;;;;;;;4931962;29;20074;-60
2023/12/03 05:03:19;;;;;;;16.55;6.90;;;;;;;;;;4930555;28;20063;-62
2023/12/03 05:05:45;;;;;;;14.57;7.28;;;;;;;;;;4926862;29;20040;-60
2023/12/03 05:08:11;;;;;;;16.15;7.28;;;;;;;;;;4932086;29;20032;-60
2023/12/03 05:10:37;;;;;;;17.95;8.57;;;;;;;;;;4942094;29;20044;-60
2023/12/03 05:13:03;;;;;;;14.93;8.05;;;;;;;;;;4943158;28;20415;-60
2023/12/03 05:15:30;;;;;;;16.42;8.25;;;;;;;;;;4934754;29;20052;-61
2023/12/03 05:17:56;;;;;;;14.77;7.80;;;;;;;;;;4941548;29;20043;-61
2023/12/03 05:20:22;;;;;;;17.98;7.38;;;;;;;;;;4935197;29;20041;-60
2023/12/03 05:22:51;;;;;;;13.55;6.55;;;;;;;;;;4934773;29;20047;-61
2023/12/03 05:25:18;;;;;;;17.98;7.78;;;;;;;;;;4936118;29;20031;-61
2023/12/03 05:27:45;;;;;;;11.93;6.40;;;;;;;;;;4927975;29;20050;-61
2023/12/03 05:30:14;;;;;;;12.10;5.97;;;;;;;;;;4932049;29;20052;-61
2023/12/03 05:32:41;;;;;;;13.75;6.22;;;;;;;;;;4933894;28;20055;-60
2023/12/03 05:35:07;;;;;;;13.05;6.28;;;;;;;;;;4929014;29;20043;-61
2023/12/03 05:37:34;;;;;;;14.88;6.63;;;;;;;;;;4935020;29;20039;-60
2023/12/03 05:40:00;;;;;;;14.95;6.85;;;;;;;;;;4932598;29;20046;-59
2023/12/03 05:42:26;;;;;;;15.15;7.35;;;;;;;;;;4939683;28;20055;-60
2023/12/03 05:44:52;;;;;;;17.52;7.55;;;;;;;;;;4937792;29;20043;-61
2023/12/03 05:47:18;;;;;;;18.55;8.52;;;;;;;;;;4933646;29;20041;-61
2023/12/03 05:49:44;;;;;;;17.25;8.35;;;;;;;;;;4933034;29;20040;-59
2023/12/03 05:52:11;;;;;;;14.13;6.78;;;;;;;;;;4934691;29;20054;-59
2023/12/03 05:54:37;;;;;;;17.85;7.60;;;;;;;;;;4932716;29;20052;-60
2023/12/03 05:57:04;;;;;;;13.93;6.55;;;;;;;;;;4938212;29;20416;-59
2023/12/03 05:59:30;;;;;;;19.27;7.28;;;;;;;;;;4936518;29;20031;-60
2023/12/03 06:01:58;;;;;;;16.67;7.60;;;;;;;;;;4933425;29;20499;-61
2023/12/03 06:04:24;;;;;;;15.25;7.13;;;;;;;;;;4933875;29;20054;-61
2023/12/03 06:06:50;;;;;;;14.13;6.90;;;;;;;;;;4933683;29;20039;-60
2023/12/03 06:09:16;;;;;;;15.38;6.93;;;;;;;;;;4929022;29;20047;-60
2023/12/03 06:11:42;;;;;;;16.83;6.95;;;;;;;;;;4939010;29;20284;-60
2023/12/03 06:14:08;;;;;;;18.00;7.57;;;;;;;;;;4937845;29;20036;-60
2023/12/03 06:16:34;;;;;;;15.25;6.82;;;;;;;;;;4928682;29;20411;-60
2023/12/03 06:19:00;;;;;;;14.18;6.57;;;;;;;;;;4929900;29;20040;-60
2023/12/03 06:21:26;;;;;;;14.70;7.25;;;;;;;;;;4929631;29;20066;-59
2023/12/03 06:23:53;;;;;;;11.27;6.63;;;;;;;;;;4932475;29;20048;-60
2023/12/03 06:26:19;;;;;;;16.55;7.78;;;;;;;;;;4934279;29;20062;-60
2023/12/03 06:28:45;;;;;;;15.52;7.15;;;;;;;;;;4928215;29;20046;-60
2023/12/03 06:31:11;;;;;;;13.25;7.07;;;;;;;;;;4935506;29;20035;-59
2023/12/03 06:33:37;;;;;;;18.33;7.15;;;;;;;;;;4931419;29;20058;-59
2023/12/03 06:36:04;;;;;;;14.15;6.82;;;;;;;;;;4928302;29;20043;-60
2023/12/03 06:38:30;;;;;;;16.45;7.45;;;;;;;;;;4935666;29;20036;-60
2023/12/03 06:40:56;;;;;;;15.68;7.20;;;;;;;;;;4933267;29;20047;-58
2023/12/03 06:43:22;;;;;;;16.23;7.13;;;;;;;;;;4936206;29;20441;-59
2023/12/03 06:45:48;;;;;;;13.15;6.45;;;;;;;;;;4934282;29;20055;-59
2023/12/03 06:48:14;;;;;;;17.00;7.43;;;;;;;;;;4931695;29;20036;-59
2023/12/03 06:50:40;;;;;;;17.10;7.43;;;;;;;;;;4949140;28;20055;-59
2023/12/03 06:53:06;;;;;;;15.85;6.93;;;;;;;;;;4935664;29;20411;-62
2023/12/03 06:55:32;;;;;;;15.95;7.32;;;;;;;;;;4934711;29;20039;-59
2023/12/03 06:57:59;;;;;;;13.65;6.45;;;;;;;;;;4929578;29;20036;-60
2023/12/03 07:00:25;;;;;;;20.23;8.70;;;;;;;;;;4932700;29;20062;-60
2023/12/03 07:02:51;;;;;;;26.85;10.18;;;;;;;;;;4937452;29;20046;-61
2023/12/03 07:05:17;;;;;;;22.75;10.38;;;;;;;;;;4936568;28;20495;-62
2023/12/03 07:07:48;;;;;;;30.63;11.38;;;;;;;;;;4933236;29;20059;-60
2023/12/03 07:10:15;;;;;;;38.53;17.08;;;;;;;;;;4940311;28;20035;-60
2023/12/03 07:12:41;;;;;;;43.63;18.17;;;;;;;;;;4935910;29;20058;-60
2023/12/03 07:15:07;;;;;;;46.45;19.90;;;;;;;;;;4928645;29;20487;-63
2023/12/03 07:17:34;;;;;;;34.47;16.80;;;;;;;;;;4930988;29;20407;-60
2023/12/03 07:20:00;;;;;;;27.48;13.38;;;;;;;;;;4933143;29;20059;-63
2023/12/03 07:22:26;;;;;;;28.90;12.63;;;;;;;;;;4934010;29;20036;-61
2023/12/03 07:24:53;;;;;;;30.17;14.63;;;;;;;;;;4934438;29;20415;-62
2023/12/03 07:27:19;;;;;;;41.35;16.23;;;;;;;;;;4931882;29;20042;-61
2023/12/03 07:29:45;;;;;;;27.58;11.98;;;;;;;;;;4932362;29;20058;-61
2023/12/03 07:32:11;;;;;;;24.63;10.80;;;;;;;;;;4933726;29;20072;-61
2023/12/03 07:34:38;;;;;;;32.17;13.93;;;;;;;;;;4933857;29;20411;-62
2023/12/03 07:37:04;;;;;;;22.05;10.05;;;;;;;;;;4934965;29;20499;-60
2023/12/03 07:39:30;;;;;;;30.33;15.70;;;;;;;;;;4920047;29;20051;-63
2023/12/03 07:41:56;;;;;;;33.42;14.93;;;;;;;;;;4935473;29;20056;-61
2023/12/03 07:44:22;;;;;;;36.40;17.60;;;;;;;;;;4918830;29;20052;-60
2023/12/03 07:46:49;;;;;;;25.05;12.20;;;;;;;;;;4926507;29;20039;-61
2023/12/03 07:49:16;;;;;;;29.67;13.38;;;;;;;;;;4931595;29;20416;-60
2023/12/03 07:51:46;;;;;;;30.35;14.55;;;;;;;;;;4920264;29;20035;-62
2023/12/03 07:54:12;;;;;;;26.42;13.27;;;;;;;;;;4928253;29;20555;-61
2023/12/03 07:56:40;;;;;;;30.00;12.77;;;;;;;;;;4922254;29;20040;-61
2023/12/03 07:59:07;;;;;;;24.05;10.82;;;;;;;;;;4933067;29;20055;-62
2023/12/03 08:01:34;;;;;;;23.73;13.00;;;;;;;;;;4932446;29;20043;-60
2023/12/03 08:04:00;;;;;;;26.98;13.63;;;;;;;;;;4935649;29;20521;-60
2023/12/03 08:06:27;;;;;;;24.77;12.82;;;;;;;;;;4930432;29;20036;-61
2023/12/03 08:08:53;;;;;;;21.77;11.02;;;;;;;;;;4934599;29;20127;-59
2023/12/03 08:11:20;;;;;;;22.05;10.82;;;;;;;;;;4930929;29;20047;-60
2023/12/03 08:13:47;;;;;;;20.77;10.05;;;;;;;;;;4930374;29;20036;-62
2023/12/03 08:16:13;;;;;;;20.65;9.80;;;;;;;;;;4930839;29;20051;-60
2023/12/03 08:18:39;;;;;;;17.67;8.75;;;;;;;;;;4927331;29;20066;-60
2023/12/03 08:21:06;;;;;;;44.13;16.13;;;;;;;;;;4933818;29;20052;-60
2023/12/03 08:23:32;;;;;;;29.05;13.65;;;;;;;;;;4937728;29;20039;-60
2023/12/03 08:25:59;;;;;;;21.92;10.65;;;;;;;;;;4937062;29;20446;-61
2023/12/03 08:28:25;;;;;;;56.00;26.73;;;;;;;;;;4934454;29;20063;-60
2023/12/03 08:30:51;;;;;;;25.92;12.48;;;;;;;;;;4921646;29;21195;-60
2023/12/03 08:33:17;;;;;;;31.17;14.85;;;;;;;;;;4924466;29;20048;-61
2023/12/03 08:35:43;;;;;;;28.15;13.43;;;;;;;;;;4922898;29;20105;-58
2023/12/03 08:38:10;;;;;;;37.28;17.15;;;;;;;;;;4933399;29;20431;-59
2023/12/03 08:40:36;;;;;;;39.42;17.60;;;;;;;;;;4935359;29;20055;-59
2023/12/03 08:43:02;;;;;;;29.33;15.52;;;;;;;;;;4938202;29;20067;-59
2023/12/03 08:45:29;;;;;;;25.38;12.13;;;;;;;;;;4934023;29;20056;-60
2023/12/03 08:47:56;;;;;;;21.70;11.00;;;;;;;;;;4936668;29;20036;-59
2023/12/03 08:50:27;;;;;;;24.38;11.73;;;;;;;;;;4937729;29;20044;-60
2023/12/03 08:52:53;;;;;;;30.77;14.15;;;;;;;;;;4935309;29;20047;-61
2023/12/03 08:55:19;;;;;;;37.35;17.55;;;;;;;;;;4935531;29;20039;-59
2023/12/03 08:57:46;;;;;;;22.88;11.52;;;;;;;;;;4927286;29;20415;-60
2023/12/03 09:00:13;;;;;;;23.92;13.82;;;;;;;;;;4937830;29;20039;-61
2023/12/03 09:02:39;;;;;;;28.77;15.07;;;;;;;;;;4934896;29;20392;-60
2023/12/03 09:05:06;;;;;;;24.50;12.73;;;;;;;;;;4937548;29;20064;-59
2023/12/03 09:07:35;;;;;;;22.42;11.30;;;;;;;;;;4933625;29;20040;-60
2023/12/03 09:10:02;;;;;;;21.57;11.20;;;;;;;;;;4935582;29;20056;-60
2023/12/03 09:12:28;;;;;;;21.38;11.57;;;;;;;;;;4931028;29;20432;-60
2023/12/03 09:14:54;;;;;;;24.33;12.07;;;;;;;;;;4933458;29;20056;-60
2023/12/03 09:17:21;;;;;;;22.13;11.77;;;;;;;;;;4925557;29;20048;-59
2023/12/03 09:19:47;;;;;;;19.77;10.05;;;;;;;;;;4927376;29;20047;-60
2023/12/03 09:22:13;;;;;;;15.45;8.60;;;;;;;;;;4932362;29;20054;-61
2023/12/03 09:24:39;;;;;;;20.15;9.32;;;;;;;;;;4928942;29;20039;-60
2023/12/03 09:27:06;;;;;;;19.27;10.10;;;;;;;;;;4932281;29;20060;-59
2023/12/03 09:29:32;;;;;;;22.38;10.80;;;;;;;;;;4934913;29;20043;-58
2023/12/03 09:31:58;;;;;;;20.20;10.20;;;;;;;;;;4927181;29;20035;-60
2023/12/03 09:34:27;;;;;;;17.25;8.73;;;;;;;;;;4924870;29;20058;-60
2023/12/03 09:36:53;;;;;;;18.02;9.10;;;;;;;;;;4925324;29;20047;-60
2023/12/03 09:39:19;;;;;;;18.38;9.18;;;;;;;;;;4932724;29;20047;-60
2023/12/03 09:41:50;;;;;;;18.08;8.98;;;;;;;;;;4929168;29;20043;-59
2023/12/03 09:44:36;;;;;;;16.80;8.05;;;;;;;;;;4925636;29;20052;-60
2023/12/03 09:47:06;;;;;;;15.25;8.05;;;;;;;;;;4922818;29;20448;-59
2023/12/03 09:49:33;;;;;;;17.52;8.85;;;;;;;;;;4931907;29;20062;-59
2023/12/03 09:52:02;;;;;;;16.42;8.27;;;;;;;;;;4931222;29;20051;-57
2023/12/03 09:54:32;;;;;;;14.30;7.75;;;;;;;;;;4929437;29;20043;-59
2023/12/03 09:56:59;;;;;;;15.88;8.73;;;;;;;;;;4930989;29;20034;-59
2023/12/03 09:59:27;;;;;;;19.88;10.35;;;;;;;;;;4934354;29;20523;-59
2023/12/03 10:01:57;;;;;;;18.80;10.82;;;;;;;;;;4927655;28;20047;-58
2023/12/03 10:04:23;;;;;;;20.52;10.55;;;;;;;;;;4927557;29;20400;-59
2023/12/03 10:06:52;;;;;;;18.35;10.25;;;;;;;;;;4916010;29;20047;-61
2023/12/03 10:09:19;;;;;;;15.60;8.40;;;;;;;;;;4931421;29;20052;-60
2023/12/03 10:11:58;;;;;;;18.25;8.95;;;;;;;;;;4928673;29;20047;-61
2023/12/03 10:14:25;;;;;;;26.38;12.18;;;;;;;;;;4922225;29;20043;-59
2023/12/03 10:16:52;;;;;;;21.10;10.60;;;;;;;;;;4928756;29;20035;-59
2023/12/03 10:19:25;;;;;;;18.23;9.32;;;;;;;;;;4932472;29;20042;-61
2023/12/03 10:21:52;;;;;;;18.75;9.90;;;;;;;;;;4926987;29;20055;-59
2023/12/03 10:24:19;;;;;;;20.15;10.45;;;;;;;;;;4930776;29;20047;-61
2023/12/03 10:26:51;;;;;;;20.23;10.35;;;;;;;;;;4926420;29;20456;-58
2023/12/03 10:29:23;;;;;;;15.38;8.13;;;;;;;;;;4927985;29;20051;-60
2023/12/03 10:31:53;;;;;;;16.88;8.13;;;;;;;;;;4934429;29;20396;-60
2023/12/03 10:34:24;;;;;;;18.40;10.32;;;;;;;;;;4927883;29;20052;-58
2023/12/03 10:36:50;;;;;;;15.70;8.65;;;;;;;;;;4931317;29;20058;-58
2023/12/03 10:39:20;;;;;;;17.83;9.27;;;;;;;;;;4930936;29;20055;-60
2023/12/03 10:41:48;;;;;;;15.60;8.60;;;;;;;;;;4930616;29;20518;-59
2023/12/03 10:44:19;;;;;;;19.08;9.68;;;;;;;;;;4928263;29;20067;-60
2023/12/03 10:46:45;;;;;;;18.77;10.00;;;;;;;;;;4931496;29;20424;-59
2023/12/03 10:49:14;;;;;;;17.75;9.65;;;;;;;;;;4924582;28;20054;-63
2023/12/03 10:51:46;;;;;;;27.27;14.05;;;;;;;;;;4933166;29;20490;-61
2023/12/03 10:54:13;;;;;;;22.40;12.13;;;;;;;;;;4928085;29;20034;-60
2023/12/03 10:56:43;;;;;;;23.23;11.80;;;;;;;;;;4931031;29;20495;-60
2023/12/03 10:59:12;;;;;;;22.90;12.00;;;;;;;;;;4931360;29;20051;-60
2023/12/03 11:01:43;;;;;;;18.58;9.80;;;;;;;;;;4930841;29;20073;-60
2023/12/03 11:04:16;;;;;;;18.25;10.27;;;;;;;;;;4928683;29;20031;-61
2023/12/03 11:06:45;;;;;;;18.15;11.20;;;;;;;;;;4931995;29;20043;-61
2023/12/03 11:09:12;;;;;;;;;;;;;;;;;;4928697;29;20047;-59
2023/12/03 11:11:38;;;;;;;17.90;8.60;;;;;;;;;;4932365;29;19922;-61
2023/12/03 11:14:05;;;;;;;21.23;12.43;;;;;;;;;;4929929;29;20056;-64
2023/12/03 11:16:40;;;;;;;22.00;11.48;;;;;;;;;;4930051;29;20066;-61
2023/12/03 11:19:10;;;;;;;22.90;10.98;;;;;;;;;;4932181;29;20435;-61
2023/12/03 11:21:51;;;;;;;20.30;10.05;;;;;;;;;;4932346;29;20051;-61
2023/12/03 11:24:38;;;;;;;13.05;7.40;;;;;;;;;;4932736;29;20040;-59
2023/12/03 11:27:05;;;;;;;11.05;6.18;;;;;;;;;;4928835;29;20058;-60
2023/12/03 11:29:51;;;;;;;13.77;7.10;;;;;;;;;;4930225;29;20432;-61
2023/12/03 11:32:19;;;;;;;12.52;7.20;;;;;;;;;;4929113;29;20050;-60
2023/12/03 11:34:56;;;;;;;14.05;8.52;;;;;;;;;;4927138;29;20054;-60
2023/12/03 11:37:25;;;;;;;16.52;9.60;;;;;;;;;;4930287;29;20040;-60
2023/12/03 11:39:51;;;;;;;24.80;13.75;;;;;;;;;;4919549;29;20047;-58
2023/12/03 11:42:18;;;;;;;22.25;13.40;;;;;;;;;;4924773;29;20046;-60
2023/12/03 11:44:45;;;;;;;21.25;12.40;;;;;;;;;;4937567;29;20046;-60
2023/12/03 11:47:12;;;;;;;21.30;12.07;;;;;;;;;;4931574;29;20055;-60
2023/12/03 11:49:40;;;;;;;20.08;11.88;;;;;;;;;;4926586;29;20048;-59
2023/12/03 11:52:06;;;;;;;21.88;12.77;;;;;;;;;;4925029;29;20055;-60
2023/12/03 11:54:37;;;;;;;19.83;12.23;;;;;;;;;;4935413;29;20504;-60
2023/12/03 11:57:12;;;;;;;19.67;11.43;;;;;;;;;;4938382;29;20527;-60
2023/12/03 11:59:39;;;;;;;28.33;14.57;;;;;;;;;;4931086;29;20047;-60
2023/12/03 12:02:05;;;;;;;26.77;14.77;;;;;;;;;;4941296;29;20054;-60
2023/12/03 12:04:32;;;;;;;21.17;12.43;;;;;;;;;;4937962;29;20044;-59
2023/12/03 12:06:58;;;;;;;21.60;12.55;;;;;;;;;;4933268;29;20034;-59
2023/12/03 12:09:24;;;;;;;20.92;11.80;;;;;;;;;;4926876;29;20039;-59
2023/12/03 12:11:50;;;;;;;18.27;11.75;;;;;;;;;;4935040;29;20043;-59
2023/12/03 12:14:18;;;;;;;20.08;12.57;;;;;;;;;;4935181;29;20059;-60
2023/12/03 12:16:45;;;;;;;20.65;12.40;;;;;;;;;;4934939;29;20036;-58
2023/12/03 12:19:15;;;;;;;21.23;11.77;;;;;;;;;;4935413;29;20045;-59
2023/12/03 12:21:55;;;;;;;20.80;12.48;;;;;;;;;;4933884;29;20059;-59
2023/12/03 12:24:22;;;;;;;20.67;11.77;;;;;;;;;;4937093;29;20047;-59
2023/12/03 12:26:50;;;;;;;20.38;12.75;;;;;;;;;;4922722;29;20492;-59
2023/12/03 12:29:18;;;;;;;23.08;12.63;;;;;;;;;;4934967;29;20051;-58
2023/12/03 12:31:48;;;;;;;19.20;12.65;;;;;;;;;;4938368;29;20040;-59
2023/12/03 12:34:14;;;;;;;;;;;;;;;;;;4920671;29;20555;-59
2023/12/03 12:36:43;;;;;;;26.02;14.13;;;;;;;;;;4933748;29;19919;-58
2023/12/03 12:39:28;;;;;;;27.83;16.42;;;;;;;;;;4942289;29;20027;-60
2023/12/03 12:41:57;;;;;;;25.30;15.48;;;;;;;;;;4939864;29;20047;-59
2023/12/03 12:44:39;;;;;;;23.35;13.90;;;;;;;;;;4938269;29;20039;-59
2023/12/03 12:47:06;;;;;;;26.80;15.13;;;;;;;;;;4939683;29;20047;-58
2023/12/03 12:49:33;;;;;;;26.27;15.85;;;;;;;;;;4935110;29;20058;-58
2023/12/03 12:52:12;;;;;;;24.25;15.75;;;;;;;;;;4941548;29;20038;-57
2023/12/03 12:54:47;;;;;;;23.77;14.27;;;;;;;;;;4936066;29;20036;-57
2023/12/03 12:57:14;;;;;;;20.90;12.75;;;;;;;;;;4940183;29;20051;-59
2023/12/03 12:59:41;;;;;;;20.10;11.70;;;;;;;;;;4936268;28;20140;-59
2023/12/03 13:02:08;;;;;;;18.63;10.98;;;;;;;;;;4935578;29;20038;-59
2023/12/03 13:04:35;;;;;;;18.35;11.05;;;;;;;;;;4941636;29;20031;-59
2023/12/03 13:07:03;;;;;;;17.85;11.43;;;;;;;;;;4939175;28;20051;-58
2023/12/03 13:09:30;;;;;;;19.38;11.27;;;;;;;;;;4937443;28;20063;-58
2023/12/03 13:11:56;;;;;;;20.45;12.13;;;;;;;;;;4934883;29;20407;-60
2023/12/03 13:14:23;;;;;;;18.45;10.93;;;;;;;;;;4936385;29;20511;-58
2023/12/03 13:16:49;;;;;;;16.65;9.75;;;;;;;;;;4933956;29;20039;-58
2023/12/03 13:19:16;;;;;;;16.20;9.82;;;;;;;;;;4935712;29;20066;-59
2023/12/03 13:21:43;;;;;;;18.67;10.82;;;;;;;;;;4934449;29;20055;-59
2023/12/03 13:24:10;;;;;;;28.10;13.43;;;;;;;;;;4936198;29;20051;-60
2023/12/03 13:26:36;;;;;;;32.45;14.40;;;;;;;;;;4935461;29;20699;-59
2023/12/03 13:29:02;;;;;;;22.77;12.13;;;;;;;;;;4938005;29;20040;-59
2023/12/03 13:31:29;;;;;;;19.92;11.30;;;;;;;;;;4934221;29;20059;-60
2023/12/03 13:33:55;;;;;;;19.70;10.38;;;;;;;;;;4933897;29;20067;-59
2023/12/03 13:36:22;;;;;;;24.17;13.43;;;;;;;;;;4941449;29;20035;-58
2023/12/03 13:38:48;;;;;;;17.13;8.93;;;;;;;;;;4933589;29;20058;-58
2023/12/03 13:41:14;;;;;;;18.77;10.65;;;;;;;;;;4939019;29;20036;-58
2023/12/03 13:43:40;;;;;;;25.25;13.85;;;;;;;;;;4934088;29;20066;-61
2023/12/03 13:46:08;;;;;;;25.33;14.30;;;;;;;;;;4934358;29;20435;-59
2023/12/03 13:48:34;;;;;;;24.08;13.70;;;;;;;;;;4933012;29;20059;-58
2023/12/03 13:51:01;;;;;;;21.33;12.85;;;;;;;;;;4940488;29;20048;-59
2023/12/03 13:53:28;;;;;;;21.42;11.75;;;;;;;;;;4934246;29;20062;-59
2023/12/03 13:55:54;;;;;;;23.35;13.95;;;;;;;;;;4936917;29;20054;-59
2023/12/03 13:58:21;;;;;;;27.45;16.23;;;;;;;;;;4933816;29;20051;-58
2023/12/03 14:00:47;;;;;;;24.35;13.52;;;;;;;;;;4933762;29;20499;-59
2023/12/03 14:03:13;;;;;;;20.50;12.07;;;;;;;;;;4936646;29;20055;-59
2023/12/03 14:05:39;;;;;;;19.48;11.60;;;;;;;;;;4936087;29;20059;-59
2023/12/03 14:08:06;;;;;;;22.42;13.23;;;;;;;;;;4934084;29;20027;-59
2023/12/03 14:10:33;;;;;;;35.00;18.48;;;;;;;;;;4934057;29;20071;-58
2023/12/03 14:12:59;;;;;;;25.80;14.02;;;;;;;;;;4934852;29;20051;-58
2023/12/03 14:15:25;;;;;;;29.90;16.55;;;;;;;;;;4934208;29;20511;-58
2023/12/03 14:17:52;;;;;;;39.33;21.13;;;;;;;;;;4934310;29;20404;-58
2023/12/03 14:20:18;;;;;;;46.85;25.75;;;;;;;;;;4933393;29;20052;-59
2023/12/03 14:22:44;;;;;;;34.58;19.67;;;;;;;;;;4929783;29;20046;-58
2023/12/03 14:25:11;;;;;;;27.42;15.50;;;;;;;;;;4936464;29;20063;-58